Irish Sea — WDB5555 — position and weather

sailwx.info

Track history (hours):
 
Tides and Currents Weather Stations Pressure Air Temp Water Temp Dewpoint Dewpoint Depression Visibility Wind Speed Wind Dir Waves Ship Positions

Irish Sea

Owner: Kirby Offshore Marine, LLC, Staten Island, NY. More information available from US FCC via Universal Licensing System and Coast Guard Vessel Documentation Center.

Last reported at 2016-Sep-29 23:33 UTC. Time now 2016-Sep-29 23:52 UTC.
Position N 39°53' W 075°11'.

Length 152 m; draft 5.6 m.

Type: . MMSI: 366910920.

Date/timePositionNaut miles runAvg speedWind from/ knotsBaromVisibWave heightAir tempDewpointWater temp
2016-Sep-29 23:33N 39°53' W 075°11'0 0.0
2016-Sep-29 21:30N 39°53' W 075°11'0 0.0
2016-Sep-29 20:33N 39°53' W 075°11'0 0.0
2016-Sep-29 19:30N 39°53' W 075°11'0 0.0
2016-Sep-29 16:29N 39°53' W 075°11'0 0.0
2016-Sep-29 15:27N 39°53' W 075°11'0 0.0
2016-Sep-29 13:27N 39°53' W 075°11'26 5.3
2016-Sep-29 08:31N 39°33' W 075°33'0 0.0
2016-Sep-29 07:31N 39°33' W 075°33'3 0.4
2016-Sep-29 00:33N 39°35' W 075°36'0 0.0
2016-Sep-28 21:33N 39°35' W 075°36'0 0.0
2016-Sep-28 19:33N 39°35' W 075°36'0 0.0
2016-Sep-28 16:32N 39°35' W 075°36'0 0.0
2016-Sep-28 15:32N 39°35' W 075°36'0 0.0
2016-Sep-28 12:32N 39°35' W 075°36'0 0.0
2016-Sep-28 08:32N 39°35' W 075°36'0 0.0
2016-Sep-28 03:32N 39°35' W 075°36'0 0.0
2016-Sep-28 02:32N 39°35' W 075°36'0 0.0
2016-Sep-28 01:32N 39°35' W 075°36'0 0.0
2016-Sep-27 23:33N 39°35' W 075°36'3 0.8
2016-Sep-27 19:33N 39°33' W 075°33'0 0.0
2016-Sep-27 14:33N 39°33' W 075°33'6 5.6
2016-Sep-27 13:33N 39°39' W 075°34'12 4.0
2016-Sep-27 10:26N 39°48' W 075°24'0 0.0
2016-Sep-27 00:33N 39°49' W 075°24'0 0.0
2016-Sep-26 20:33N 39°48' W 075°24'0 0.0
2016-Sep-26 19:28N 39°48' W 075°24'0 0.0
2016-Sep-26 15:27N 39°49' W 075°24'11 5.5
2016-Sep-26 13:28N 39°53' W 075°11'0 0.0
2016-Sep-26 11:32N 39°53' W 075°11'0 0.0
2016-Sep-26 08:11N 39°53' W 075°11'0 0.0
2016-Sep-26 02:33N 39°53' W 075°11'0 0.0
2016-Sep-26 01:33N 39°53' W 075°11'0 0.0
2016-Sep-26 00:32N 39°53' W 075°11'0 0.0
2016-Sep-25 21:31N 39°53' W 075°11'0 0.0
2016-Sep-25 16:07N 39°53' W 075°11'0 0.0
2016-Sep-25 15:31N 39°53' W 075°11'0 0.0
2016-Sep-25 14:31N 39°53' W 075°11'0 0.0
2016-Sep-25 12:28N 39°53' W 075°11'0 0.0
2016-Sep-25 11:31N 39°53' W 075°11'0 0.0
2016-Sep-25 10:31N 39°53' W 075°11'0 0.0
2016-Sep-25 09:28N 39°53' W 075°11'0 0.0
2016-Sep-25 07:31N 39°53' W 075°11'0 0.0
2016-Sep-25 04:31N 39°53' W 075°11'3 0.7
2016-Sep-25 00:34N 39°52' W 075°14'1 0.5
2016-Sep-24 22:32N 39°51' W 075°15'0 0.0
2016-Sep-24 21:32N 39°51' W 075°15'0 0.0
2016-Sep-24 19:32N 39°51' W 075°15'0 0.0
2016-Sep-24 18:33N 39°51' W 075°15'0 0.0
2016-Sep-24 17:33N 39°51' W 075°15'0 0.0
2016-Sep-24 16:33N 39°51' W 075°15'0 0.0
2016-Sep-24 14:32N 39°51' W 075°15'0 0.0
2016-Sep-24 12:32N 39°51' W 075°15'0 0.0
2016-Sep-24 10:32N 39°51' W 075°15'0 0.0
2016-Sep-24 09:29N 39°51' W 075°15'0 0.0
2016-Sep-24 03:31N 39°51' W 075°15'0 0.0
2016-Sep-24 02:33N 39°51' W 075°15'1 0.9
2016-Sep-24 01:33N 39°51' W 075°16'0 0.0
2016-Sep-24 00:34N 39°51' W 075°16'0 0.0
2016-Sep-23 19:31N 39°51' W 075°16'0 0.0
2016-Sep-23 17:31N 39°51' W 075°16'0 0.0
2016-Sep-23 16:31N 39°51' W 075°16'0 0.0
2016-Sep-23 15:28N 39°51' W 075°16'0 0.0
2016-Sep-23 13:28N 39°51' W 075°16'0 0.0
2016-Sep-23 09:31N 39°51' W 075°16'0 0.0
2016-Sep-23 06:31N 39°51' W 075°16'0 0.0
2016-Sep-23 04:31N 39°51' W 075°16'0 0.0
2016-Sep-23 03:31N 39°51' W 075°16'0 0.0
2016-Sep-23 02:25N 39°51' W 075°16'0 0.0
2016-Sep-23 01:31N 39°51' W 075°16'0 0.0
2016-Sep-23 00:31N 39°51' W 075°16'0 0.4
2016-Sep-22 23:33N 39°51' W 075°16'3 0.9
2016-Sep-22 20:33N 39°52' W 075°13'2 0.2
2016-Sep-22 12:31N 39°53' W 075°11'0 0.0
2016-Sep-22 04:31N 39°53' W 075°11'0 0.0
2016-Sep-22 03:04N 39°53' W 075°11'0 0.0
2016-Sep-22 00:21N 39°53' W 075°11'0 0.0
2016-Sep-21 23:27N 39°53' W 075°11'0 0.0
2016-Sep-21 22:33N 39°53' W 075°11'0 0.0
2016-Sep-21 19:25N 39°53' W 075°11'0 0.0
2016-Sep-21 16:25N 39°53' W 075°11'0 0.0
2016-Sep-21 09:31N 39°53' W 075°11'0 0.0
2016-Sep-21 08:31N 39°53' W 075°11'0 0.0
2016-Sep-21 03:33N 39°53' W 075°11'0 0.0
2016-Sep-21 02:33N 39°53' W 075°11'0 0.0
2016-Sep-20 17:33N 39°53' W 075°11'0 0.0
2016-Sep-20 14:27N 39°53' W 075°11'0 0.0
2016-Sep-20 13:30N 39°53' W 075°11'0 0.0
2016-Sep-20 10:30N 39°53' W 075°11'0 0.0
2016-Sep-20 08:33N 39°53' W 075°11'0 0.0
2016-Sep-20 07:33N 39°53' W 075°11'0 0.0
2016-Sep-20 06:30N 39°53' W 075°11'0 0.0
2016-Sep-20 02:33N 39°53' W 075°11'0 0.0
2016-Sep-19 23:33N 39°53' W 075°11'  
Track history (hours):
 
Tides and Currents Weather Stations Pressure Air Temp Water Temp Dewpoint Dewpoint Depression Visibility Wind Speed Wind Dir Waves Ship Positions

Irish Sea

Owner: Kirby Offshore Marine, LLC, Staten Island, NY. More information available from US FCC via Universal Licensing System and Coast Guard Vessel Documentation Center.

Last reported at 2016-Sep-29 23:33 UTC. Time now 2016-Sep-29 23:52 UTC.
Position N 39°53' W 075°11'.

Length 152 m; draft 5.6 m.

Type: . MMSI: 366910920.

Date/timePositionNaut miles runAvg speedWind from/ knotsBaromVisibWave heightAir tempDewpointWater temp
2016-Sep-29 23:33N 39°53' W 075°11'0 0.0
2016-Sep-29 21:30N 39°53' W 075°11'0 0.0
2016-Sep-29 20:33N 39°53' W 075°11'0 0.0
2016-Sep-29 19:30N 39°53' W 075°11'0 0.0
2016-Sep-29 16:29N 39°53' W 075°11'0 0.0
2016-Sep-29 15:27N 39°53' W 075°11'0 0.0
2016-Sep-29 13:27N 39°53' W 075°11'26 5.3
2016-Sep-29 08:31N 39°33' W 075°33'0 0.0
2016-Sep-29 07:31N 39°33' W 075°33'3 0.4
2016-Sep-29 00:33N 39°35' W 075°36'0 0.0
2016-Sep-28 21:33N 39°35' W 075°36'0 0.0
2016-Sep-28 19:33N 39°35' W 075°36'0 0.0
2016-Sep-28 16:32N 39°35' W 075°36'0 0.0
2016-Sep-28 15:32N 39°35' W 075°36'0 0.0
2016-Sep-28 12:32N 39°35' W 075°36'0 0.0
2016-Sep-28 08:32N 39°35' W 075°36'0 0.0
2016-Sep-28 03:32N 39°35' W 075°36'0 0.0
2016-Sep-28 02:32N 39°35' W 075°36'0 0.0
2016-Sep-28 01:32N 39°35' W 075°36'0 0.0
2016-Sep-27 23:33N 39°35' W 075°36'3 0.8
2016-Sep-27 19:33N 39°33' W 075°33'0 0.0
2016-Sep-27 14:33N 39°33' W 075°33'6 5.6
2016-Sep-27 13:33N 39°39' W 075°34'12 4.0
2016-Sep-27 10:26N 39°48' W 075°24'0 0.0
2016-Sep-27 00:33N 39°49' W 075°24'0 0.0
2016-Sep-26 20:33N 39°48' W 075°24'0 0.0
2016-Sep-26 19:28N 39°48' W 075°24'0 0.0
2016-Sep-26 15:27N 39°49' W 075°24'11 5.5
2016-Sep-26 13:28N 39°53' W 075°11'0 0.0
2016-Sep-26 11:32N 39°53' W 075°11'0 0.0
2016-Sep-26 08:11N 39°53' W 075°11'0 0.0
2016-Sep-26 02:33N 39°53' W 075°11'0 0.0
2016-Sep-26 01:33N 39°53' W 075°11'0 0.0
2016-Sep-26 00:32N 39°53' W 075°11'0 0.0
2016-Sep-25 21:31N 39°53' W 075°11'0 0.0
2016-Sep-25 16:07N 39°53' W 075°11'0 0.0
2016-Sep-25 15:31N 39°53' W 075°11'0 0.0
2016-Sep-25 14:31N 39°53' W 075°11'0 0.0
2016-Sep-25 12:28N 39°53' W 075°11'0 0.0
2016-Sep-25 11:31N 39°53' W 075°11'0 0.0
2016-Sep-25 10:31N 39°53' W 075°11'0 0.0
2016-Sep-25 09:28N 39°53' W 075°11'0 0.0
2016-Sep-25 07:31N 39°53' W 075°11'0 0.0
2016-Sep-25 04:31N 39°53' W 075°11'3 0.7
2016-Sep-25 00:34N 39°52' W 075°14'1 0.5
2016-Sep-24 22:32N 39°51' W 075°15'0 0.0
2016-Sep-24 21:32N 39°51' W 075°15'0 0.0
2016-Sep-24 19:32N 39°51' W 075°15'0 0.0
2016-Sep-24 18:33N 39°51' W 075°15'0 0.0
2016-Sep-24 17:33N 39°51' W 075°15'0 0.0
2016-Sep-24 16:33N 39°51' W 075°15'0 0.0
2016-Sep-24 14:32N 39°51' W 075°15'0 0.0
2016-Sep-24 12:32N 39°51' W 075°15'0 0.0
2016-Sep-24 10:32N 39°51' W 075°15'0 0.0
2016-Sep-24 09:29N 39°51' W 075°15'0 0.0
2016-Sep-24 03:31N 39°51' W 075°15'0 0.0
2016-Sep-24 02:33N 39°51' W 075°15'1 0.9
2016-Sep-24 01:33N 39°51' W 075°16'0 0.0
2016-Sep-24 00:34N 39°51' W 075°16'0 0.0
2016-Sep-23 19:31N 39°51' W 075°16'0 0.0
2016-Sep-23 17:31N 39°51' W 075°16'0 0.0
2016-Sep-23 16:31N 39°51' W 075°16'0 0.0
2016-Sep-23 15:28N 39°51' W 075°16'0 0.0
2016-Sep-23 13:28N 39°51' W 075°16'0 0.0
2016-Sep-23 09:31N 39°51' W 075°16'0 0.0
2016-Sep-23 06:31N 39°51' W 075°16'0 0.0
2016-Sep-23 04:31N 39°51' W 075°16'0 0.0
2016-Sep-23 03:31N 39°51' W 075°16'0 0.0
2016-Sep-23 02:25N 39°51' W 075°16'0 0.0
2016-Sep-23 01:31N 39°51' W 075°16'0 0.0
2016-Sep-23 00:31N 39°51' W 075°16'0 0.4
2016-Sep-22 23:33N 39°51' W 075°16'3 0.9
2016-Sep-22 20:33N 39°52' W 075°13'2 0.2
2016-Sep-22 12:31N 39°53' W 075°11'0 0.0
2016-Sep-22 04:31N 39°53' W 075°11'0 0.0
2016-Sep-22 03:04N 39°53' W 075°11'0 0.0
2016-Sep-22 00:21N 39°53' W 075°11'0 0.0
2016-Sep-21 23:27N 39°53' W 075°11'0 0.0
2016-Sep-21 22:33N 39°53' W 075°11'0 0.0
2016-Sep-21 19:25N 39°53' W 075°11'0 0.0
2016-Sep-21 16:25N 39°53' W 075°11'0 0.0
2016-Sep-21 09:31N 39°53' W 075°11'0 0.0
2016-Sep-21 08:31N 39°53' W 075°11'0 0.0
2016-Sep-21 03:33N 39°53' W 075°11'0 0.0
2016-Sep-21 02:33N 39°53' W 075°11'0 0.0
2016-Sep-20 17:33N 39°53' W 075°11'0 0.0
2016-Sep-20 14:27N 39°53' W 075°11'0 0.0
2016-Sep-20 13:30N 39°53' W 075°11'0 0.0
2016-Sep-20 10:30N 39°53' W 075°11'0 0.0
2016-Sep-20 08:33N 39°53' W 075°11'0 0.0
2016-Sep-20 07:33N 39°53' W 075°11'0 0.0
2016-Sep-20 06:30N 39°53' W 075°11'0 0.0
2016-Sep-20 02:33N 39°53' W 075°11'0 0.0
2016-Sep-19 23:33N 39°53' W 075°11'  

Dump ship's entire track history